sensor_id;sensor_type;location;lat;lon;timestamp;P1;durP1;ratioP1;P2;durP2;ratioP2
52470;SDS011;38382;53.160;7.026;2022-12-10T00:01:32;41.70;;;19.98;;
52470;SDS011;38382;53.160;7.026;2022-12-10T00:03:59;38.53;;;19.58;;
52470;SDS011;38382;53.160;7.026;2022-12-10T00:06:27;38.78;;;19.23;;
52470;SDS011;38382;53.160;7.026;2022-12-10T00:08:55;45.63;;;20.63;;
52470;SDS011;38382;53.160;7.026;2022-12-10T00:11:21;41.58;;;19.23;;
52470;SDS011;38382;53.160;7.026;2022-12-10T00:13:49;40.03;;;19.95;;
52470;SDS011;38382;53.160;7.026;2022-12-10T00:16:16;42.60;;;20.08;;
52470;SDS011;38382;53.160;7.026;2022-12-10T00:18:44;44.13;;;21.58;;
52470;SDS011;38382;53.160;7.026;2022-12-10T00:21:11;40.33;;;18.67;;
52470;SDS011;38382;53.160;7.026;2022-12-10T00:23:40;40.63;;;20.30;;
52470;SDS011;38382;53.160;7.026;2022-12-10T00:26:08;41.50;;;19.73;;
52470;SDS011;38382;53.160;7.026;2022-12-10T00:28:39;44.15;;;18.98;;
52470;SDS011;38382;53.160;7.026;2022-12-10T00:31:06;39.08;;;19.10;;
52470;SDS011;38382;53.160;7.026;2022-12-10T00:33:37;40.92;;;20.55;;
52470;SDS011;38382;53.160;7.026;2022-12-10T00:36:06;39.53;;;20.23;;
52470;SDS011;38382;53.160;7.026;2022-12-10T00:38:34;43.72;;;20.73;;
52470;SDS011;38382;53.160;7.026;2022-12-10T00:41:00;40.67;;;19.20;;
52470;SDS011;38382;53.160;7.026;2022-12-10T00:43:27;43.28;;;20.27;;
52470;SDS011;38382;53.160;7.026;2022-12-10T00:45:52;43.42;;;20.95;;
52470;SDS011;38382;53.160;7.026;2022-12-10T00:48:19;43.03;;;20.48;;
52470;SDS011;38382;53.160;7.026;2022-12-10T00:50:54;44.38;;;21.92;;
52470;SDS011;38382;53.160;7.026;2022-12-10T00:53:28;41.15;;;20.98;;
52470;SDS011;38382;53.160;7.026;2022-12-10T00:55:55;47.70;;;22.42;;
52470;SDS011;38382;53.160;7.026;2022-12-10T00:58:22;47.38;;;22.85;;
52470;SDS011;38382;53.160;7.026;2022-12-10T01:00:48;43.80;;;20.98;;
52470;SDS011;38382;53.160;7.026;2022-12-10T01:03:14;44.72;;;22.05;;
52470;SDS011;38382;53.160;7.026;2022-12-10T01:05:40;46.28;;;21.98;;
52470;SDS011;38382;53.160;7.026;2022-12-10T01:08:06;41.53;;;20.27;;
52470;SDS011;38382;53.160;7.026;2022-12-10T01:10:32;45.47;;;20.98;;
52470;SDS011;38382;53.160;7.026;2022-12-10T01:12:58;45.67;;;21.65;;
52470;SDS011;38382;53.160;7.026;2022-12-10T01:15:23;43.22;;;20.40;;
52470;SDS011;38382;53.160;7.026;2022-12-10T01:17:49;52.35;;;22.35;;
52470;SDS011;38382;53.160;7.026;2022-12-10T01:20:15;48.85;;;21.67;;
52470;SDS011;38382;53.160;7.026;2022-12-10T01:22:41;44.88;;;22.15;;
52470;SDS011;38382;53.160;7.026;2022-12-10T01:25:06;46.25;;;20.95;;
52470;SDS011;38382;53.160;7.026;2022-12-10T01:27:32;48.33;;;22.02;;
52470;SDS011;38382;53.160;7.026;2022-12-10T01:29:58;50.35;;;22.58;;
52470;SDS011;38382;53.160;7.026;2022-12-10T01:32:24;50.90;;;22.15;;
52470;SDS011;38382;53.160;7.026;2022-12-10T01:34:49;47.78;;;21.70;;
52470;SDS011;38382;53.160;7.026;2022-12-10T01:37:15;45.45;;;21.75;;
52470;SDS011;38382;53.160;7.026;2022-12-10T01:39:41;45.08;;;21.67;;
52470;SDS011;38382;53.160;7.026;2022-12-10T01:42:09;46.63;;;21.50;;
52470;SDS011;38382;53.160;7.026;2022-12-10T01:47:08;47.42;;;21.08;;
52470;SDS011;38382;53.160;7.026;2022-12-10T01:49:36;46.97;;;22.15;;
52470;SDS011;38382;53.160;7.026;2022-12-10T01:52:04;46.25;;;21.02;;
52470;SDS011;38382;53.160;7.026;2022-12-10T01:54:33;46.10;;;22.27;;
52470;SDS011;38382;53.160;7.026;2022-12-10T01:57:05;46.20;;;21.15;;
52470;SDS011;38382;53.160;7.026;2022-12-10T01:59:33;44.55;;;21.05;;
52470;SDS011;38382;53.160;7.026;2022-12-10T02:02:03;45.72;;;22.05;;
52470;SDS011;38382;53.160;7.026;2022-12-10T02:07:32;47.58;;;21.35;;
52470;SDS011;38382;53.160;7.026;2022-12-10T02:16:25;48.83;;;21.60;;
52470;SDS011;38382;53.160;7.026;2022-12-10T02:18:58;48.00;;;21.63;;
52470;SDS011;38382;53.160;7.026;2022-12-10T02:21:36;46.60;;;22.20;;
52470;SDS011;38382;53.160;7.026;2022-12-10T02:24:06;49.75;;;23.52;;
52470;SDS011;38382;53.160;7.026;2022-12-10T02:29:28;49.38;;;23.08;;
52470;SDS011;38382;53.160;7.026;2022-12-10T02:31:59;54.72;;;23.58;;
52470;SDS011;38382;53.160;7.026;2022-12-10T02:34:38;50.78;;;22.05;;
52470;SDS011;38382;53.160;7.026;2022-12-10T02:37:11;51.28;;;22.33;;
52470;SDS011;38382;53.160;7.026;2022-12-10T02:39:42;51.85;;;22.30;;
52470;SDS011;38382;53.160;7.026;2022-12-10T02:42:13;53.70;;;23.38;;
52470;SDS011;38382;53.160;7.026;2022-12-10T02:44:42;52.50;;;22.30;;
52470;SDS011;38382;53.160;7.026;2022-12-10T02:47:10;53.78;;;22.80;;
52470;SDS011;38382;53.160;7.026;2022-12-10T02:49:36;53.45;;;22.40;;
52470;SDS011;38382;53.160;7.026;2022-12-10T02:52:06;53.92;;;23.38;;
52470;SDS011;38382;53.160;7.026;2022-12-10T02:54:41;51.33;;;23.23;;
52470;SDS011;38382;53.160;7.026;2022-12-10T03:00:12;52.47;;;22.80;;
52470;SDS011;38382;53.160;7.026;2022-12-10T03:05:36;52.40;;;22.50;;
52470;SDS011;38382;53.160;7.026;2022-12-10T03:08:34;55.55;;;22.83;;
52470;SDS011;38382;53.160;7.026;2022-12-10T03:14:21;58.83;;;23.98;;
52470;SDS011;38382;53.160;7.026;2022-12-10T03:16:47;53.47;;;23.92;;
52470;SDS011;38382;53.160;7.026;2022-12-10T03:19:20;54.47;;;23.67;;
52470;SDS011;38382;53.160;7.026;2022-12-10T03:21:49;55.60;;;23.50;;
52470;SDS011;38382;53.160;7.026;2022-12-10T03:24:17;52.33;;;22.77;;
52470;SDS011;38382;53.160;7.026;2022-12-10T03:26:45;56.67;;;22.73;;
52470;SDS011;38382;53.160;7.026;2022-12-10T03:29:15;54.70;;;25.02;;
52470;SDS011;38382;53.160;7.026;2022-12-10T03:31:45;54.67;;;22.60;;
52470;SDS011;38382;53.160;7.026;2022-12-10T03:34:12;61.20;;;25.60;;
52470;SDS011;38382;53.160;7.026;2022-12-10T03:36:39;59.45;;;24.98;;
52470;SDS011;38382;53.160;7.026;2022-12-10T03:39:07;59.42;;;24.30;;
52470;SDS011;38382;53.160;7.026;2022-12-10T03:41:33;61.80;;;26.13;;
52470;SDS011;38382;53.160;7.026;2022-12-10T03:43:59;59.80;;;24.52;;
52470;SDS011;38382;53.160;7.026;2022-12-10T03:46:26;63.88;;;25.23;;
52470;SDS011;38382;53.160;7.026;2022-12-10T03:48:53;57.08;;;24.02;;
52470;SDS011;38382;53.160;7.026;2022-12-10T03:51:20;60.83;;;25.35;;
52470;SDS011;38382;53.160;7.026;2022-12-10T03:53:46;62.80;;;24.55;;
52470;SDS011;38382;53.160;7.026;2022-12-10T03:56:14;63.55;;;25.75;;
52470;SDS011;38382;53.160;7.026;2022-12-10T03:58:41;58.28;;;26.30;;
52470;SDS011;38382;53.160;7.026;2022-12-10T04:01:07;53.65;;;24.13;;
52470;SDS011;38382;53.160;7.026;2022-12-10T04:03:37;59.72;;;25.90;;
52470;SDS011;38382;53.160;7.026;2022-12-10T04:06:04;59.10;;;24.20;;
52470;SDS011;38382;53.160;7.026;2022-12-10T04:08:33;60.20;;;25.75;;
52470;SDS011;38382;53.160;7.026;2022-12-10T04:11:02;65.53;;;26.50;;
52470;SDS011;38382;53.160;7.026;2022-12-10T04:13:30;58.65;;;24.52;;
52470;SDS011;38382;53.160;7.026;2022-12-10T04:16:16;62.22;;;25.63;;
52470;SDS011;38382;53.160;7.026;2022-12-10T04:18:58;58.17;;;25.83;;
52470;SDS011;38382;53.160;7.026;2022-12-10T04:21:27;64.32;;;26.52;;
52470;SDS011;38382;53.160;7.026;2022-12-10T04:24:12;60.58;;;25.77;;
52470;SDS011;38382;53.160;7.026;2022-12-10T04:26:59;64.32;;;27.70;;
52470;SDS011;38382;53.160;7.026;2022-12-10T04:29:28;65.90;;;27.30;;
52470;SDS011;38382;53.160;7.026;2022-12-10T04:31:55;59.90;;;25.95;;
52470;SDS011;38382;53.160;7.026;2022-12-10T04:34:22;65.35;;;27.33;;
52470;SDS011;38382;53.160;7.026;2022-12-10T04:36:49;63.33;;;26.55;;
52470;SDS011;38382;53.160;7.026;2022-12-10T04:39:15;60.50;;;25.58;;
52470;SDS011;38382;53.160;7.026;2022-12-10T04:41:42;63.88;;;28.10;;
52470;SDS011;38382;53.160;7.026;2022-12-10T04:44:09;60.65;;;26.55;;
52470;SDS011;38382;53.160;7.026;2022-12-10T04:46:35;60.05;;;26.90;;
52470;SDS011;38382;53.160;7.026;2022-12-10T04:49:02;67.40;;;26.67;;
52470;SDS011;38382;53.160;7.026;2022-12-10T04:51:28;64.80;;;28.40;;
52470;SDS011;38382;53.160;7.026;2022-12-10T04:53:53;65.35;;;27.25;;
52470;SDS011;38382;53.160;7.026;2022-12-10T04:56:19;68.93;;;27.40;;
52470;SDS011;38382;53.160;7.026;2022-12-10T04:58:45;64.88;;;27.40;;
52470;SDS011;38382;53.160;7.026;2022-12-10T05:01:10;65.88;;;28.17;;
52470;SDS011;38382;53.160;7.026;2022-12-10T05:03:37;61.90;;;27.48;;
52470;SDS011;38382;53.160;7.026;2022-12-10T05:06:05;60.40;;;26.23;;
52470;SDS011;38382;53.160;7.026;2022-12-10T05:08:33;64.57;;;26.85;;
52470;SDS011;38382;53.160;7.026;2022-12-10T05:11:03;62.97;;;27.60;;
52470;SDS011;38382;53.160;7.026;2022-12-10T05:13:30;70.47;;;28.20;;
52470;SDS011;38382;53.160;7.026;2022-12-10T05:15:59;68.85;;;29.88;;
52470;SDS011;38382;53.160;7.026;2022-12-10T05:18:27;58.88;;;26.50;;
52470;SDS011;38382;53.160;7.026;2022-12-10T05:20:52;66.82;;;28.88;;
52470;SDS011;38382;53.160;7.026;2022-12-10T05:23:18;63.47;;;27.92;;
52470;SDS011;38382;53.160;7.026;2022-12-10T05:28:34;64.03;;;26.73;;
52470;SDS011;38382;53.160;7.026;2022-12-10T05:31:01;75.85;;;29.42;;
52470;SDS011;38382;53.160;7.026;2022-12-10T05:33:27;70.55;;;29.15;;
52470;SDS011;38382;53.160;7.026;2022-12-10T05:35:57;64.20;;;27.52;;
52470;SDS011;38382;53.160;7.026;2022-12-10T05:38:25;70.70;;;29.07;;
52470;SDS011;38382;53.160;7.026;2022-12-10T05:40:52;62.33;;;27.48;;
52470;SDS011;38382;53.160;7.026;2022-12-10T05:43:18;65.65;;;27.38;;
52470;SDS011;38382;53.160;7.026;2022-12-10T05:45:44;68.38;;;27.83;;
52470;SDS011;38382;53.160;7.026;2022-12-10T05:48:10;66.60;;;28.08;;
52470;SDS011;38382;53.160;7.026;2022-12-10T05:50:37;71.03;;;29.40;;
52470;SDS011;38382;53.160;7.026;2022-12-10T05:53:04;66.43;;;28.83;;
52470;SDS011;38382;53.160;7.026;2022-12-10T05:55:30;69.03;;;30.08;;
52470;SDS011;38382;53.160;7.026;2022-12-10T05:57:58;65.93;;;27.88;;
52470;SDS011;38382;53.160;7.026;2022-12-10T06:00:24;68.07;;;28.48;;
52470;SDS011;38382;53.160;7.026;2022-12-10T06:02:50;66.68;;;26.80;;
52470;SDS011;38382;53.160;7.026;2022-12-10T06:05:16;65.88;;;27.13;;
52470;SDS011;38382;53.160;7.026;2022-12-10T06:07:42;67.82;;;29.17;;
52470;SDS011;38382;53.160;7.026;2022-12-10T06:10:08;64.65;;;28.23;;
52470;SDS011;38382;53.160;7.026;2022-12-10T06:12:34;66.00;;;28.63;;
52470;SDS011;38382;53.160;7.026;2022-12-10T06:14:59;76.50;;;29.88;;
52470;SDS011;38382;53.160;7.026;2022-12-10T06:17:25;68.93;;;30.10;;
52470;SDS011;38382;53.160;7.026;2022-12-10T06:19:51;64.75;;;27.90;;
52470;SDS011;38382;53.160;7.026;2022-12-10T06:22:17;68.78;;;29.35;;
52470;SDS011;38382;53.160;7.026;2022-12-10T06:24:42;74.07;;;29.15;;
52470;SDS011;38382;53.160;7.026;2022-12-10T06:27:08;69.63;;;28.60;;
52470;SDS011;38382;53.160;7.026;2022-12-10T06:29:34;69.68;;;28.67;;
52470;SDS011;38382;53.160;7.026;2022-12-10T06:31:59;72.97;;;32.03;;
52470;SDS011;38382;53.160;7.026;2022-12-10T06:34:25;71.05;;;29.52;;
52470;SDS011;38382;53.160;7.026;2022-12-10T06:36:51;71.38;;;29.75;;
52470;SDS011;38382;53.160;7.026;2022-12-10T06:39:18;71.63;;;29.40;;
52470;SDS011;38382;53.160;7.026;2022-12-10T06:41:43;73.70;;;29.15;;
52470;SDS011;38382;53.160;7.026;2022-12-10T06:44:11;70.75;;;29.55;;
52470;SDS011;38382;53.160;7.026;2022-12-10T06:46:37;74.03;;;30.17;;
52470;SDS011;38382;53.160;7.026;2022-12-10T06:49:04;72.40;;;29.58;;
52470;SDS011;38382;53.160;7.026;2022-12-10T06:51:30;70.82;;;30.00;;
52470;SDS011;38382;53.160;7.026;2022-12-10T06:53:56;79.88;;;29.30;;
52470;SDS011;38382;53.160;7.026;2022-12-10T06:56:22;67.55;;;27.58;;
52470;SDS011;38382;53.160;7.026;2022-12-10T06:58:48;67.97;;;28.35;;
52470;SDS011;38382;53.160;7.026;2022-12-10T07:01:15;76.55;;;28.90;;
52470;SDS011;38382;53.160;7.026;2022-12-10T07:03:42;76.85;;;30.55;;
52470;SDS011;38382;53.160;7.026;2022-12-10T07:06:09;71.30;;;30.65;;
52470;SDS011;38382;53.160;7.026;2022-12-10T07:08:36;71.18;;;30.98;;
52470;SDS011;38382;53.160;7.026;2022-12-10T07:11:06;78.28;;;30.48;;
52470;SDS011;38382;53.160;7.026;2022-12-10T07:13:34;75.25;;;30.38;;
52470;SDS011;38382;53.160;7.026;2022-12-10T07:16:00;82.75;;;31.00;;
52470;SDS011;38382;53.160;7.026;2022-12-10T07:18:26;86.88;;;31.73;;
52470;SDS011;38382;53.160;7.026;2022-12-10T07:20:52;79.70;;;30.55;;
52470;SDS011;38382;53.160;7.026;2022-12-10T07:23:18;77.78;;;30.45;;
52470;SDS011;38382;53.160;7.026;2022-12-10T07:25:44;69.68;;;31.08;;
52470;SDS011;38382;53.160;7.026;2022-12-10T07:28:10;72.78;;;29.92;;
52470;SDS011;38382;53.160;7.026;2022-12-10T07:30:36;80.43;;;33.05;;
52470;SDS011;38382;53.160;7.026;2022-12-10T07:33:01;72.00;;;29.45;;
52470;SDS011;38382;53.160;7.026;2022-12-10T07:35:27;80.47;;;29.98;;
52470;SDS011;38382;53.160;7.026;2022-12-10T07:37:53;78.43;;;30.60;;
52470;SDS011;38382;53.160;7.026;2022-12-10T07:40:19;74.25;;;30.17;;
52470;SDS011;38382;53.160;7.026;2022-12-10T07:42:44;76.30;;;30.73;;
52470;SDS011;38382;53.160;7.026;2022-12-10T07:45:10;74.38;;;29.63;;
52470;SDS011;38382;53.160;7.026;2022-12-10T07:47:39;80.00;;;31.05;;
52470;SDS011;38382;53.160;7.026;2022-12-10T07:50:05;80.60;;;32.17;;
52470;SDS011;38382;53.160;7.026;2022-12-10T07:52:31;74.57;;;32.38;;
52470;SDS011;38382;53.160;7.026;2022-12-10T07:54:57;87.28;;;31.10;;
52470;SDS011;38382;53.160;7.026;2022-12-10T07:57:22;79.20;;;30.10;;
52470;SDS011;38382;53.160;7.026;2022-12-10T07:59:48;74.40;;;30.38;;
52470;SDS011;38382;53.160;7.026;2022-12-10T08:02:14;77.47;;;29.63;;
52470;SDS011;38382;53.160;7.026;2022-12-10T08:04:40;74.53;;;30.60;;
52470;SDS011;38382;53.160;7.026;2022-12-10T08:07:05;78.32;;;30.27;;
52470;SDS011;38382;53.160;7.026;2022-12-10T08:09:32;83.07;;;31.05;;
52470;SDS011;38382;53.160;7.026;2022-12-10T08:11:58;80.03;;;30.40;;
52470;SDS011;38382;53.160;7.026;2022-12-10T08:14:23;81.10;;;32.97;;
52470;SDS011;38382;53.160;7.026;2022-12-10T08:16:49;73.00;;;28.67;;
52470;SDS011;38382;53.160;7.026;2022-12-10T08:19:15;77.63;;;31.05;;
52470;SDS011;38382;53.160;7.026;2022-12-10T08:21:40;75.47;;;30.15;;
52470;SDS011;38382;53.160;7.026;2022-12-10T08:24:07;78.95;;;31.00;;
52470;SDS011;38382;53.160;7.026;2022-12-10T08:26:33;79.10;;;30.75;;
52470;SDS011;38382;53.160;7.026;2022-12-10T08:28:59;73.93;;;30.75;;
52470;SDS011;38382;53.160;7.026;2022-12-10T08:31:25;75.75;;;29.13;;
52470;SDS011;38382;53.160;7.026;2022-12-10T08:33:52;73.53;;;31.15;;
52470;SDS011;38382;53.160;7.026;2022-12-10T08:36:18;78.38;;;31.08;;
52470;SDS011;38382;53.160;7.026;2022-12-10T08:38:44;79.43;;;29.48;;
52470;SDS011;38382;53.160;7.026;2022-12-10T08:41:12;82.05;;;30.75;;
52470;SDS011;38382;53.160;7.026;2022-12-10T08:43:40;82.75;;;30.02;;
52470;SDS011;38382;53.160;7.026;2022-12-10T08:46:06;82.72;;;30.50;;
52470;SDS011;38382;53.160;7.026;2022-12-10T08:48:32;77.20;;;30.60;;
52470;SDS011;38382;53.160;7.026;2022-12-10T08:50:59;76.05;;;31.83;;
52470;SDS011;38382;53.160;7.026;2022-12-10T08:53:24;73.45;;;29.75;;
52470;SDS011;38382;53.160;7.026;2022-12-10T08:55:51;74.80;;;29.75;;
52470;SDS011;38382;53.160;7.026;2022-12-10T08:58:18;73.68;;;29.88;;
52470;SDS011;38382;53.160;7.026;2022-12-10T09:00:44;72.57;;;29.05;;
52470;SDS011;38382;53.160;7.026;2022-12-10T09:03:10;76.18;;;29.17;;
52470;SDS011;38382;53.160;7.026;2022-12-10T09:05:36;75.60;;;29.80;;
52470;SDS011;38382;53.160;7.026;2022-12-10T09:08:02;73.07;;;29.13;;
52470;SDS011;38382;53.160;7.026;2022-12-10T09:10:28;77.55;;;30.92;;
52470;SDS011;38382;53.160;7.026;2022-12-10T09:12:54;75.07;;;30.75;;
52470;SDS011;38382;53.160;7.026;2022-12-10T09:15:19;76.40;;;29.67;;
52470;SDS011;38382;53.160;7.026;2022-12-10T09:17:45;75.68;;;30.60;;
52470;SDS011;38382;53.160;7.026;2022-12-10T09:20:11;79.05;;;31.65;;
52470;SDS011;38382;53.160;7.026;2022-12-10T09:22:38;75.78;;;31.17;;
52470;SDS011;38382;53.160;7.026;2022-12-10T09:25:04;81.53;;;33.50;;
52470;SDS011;38382;53.160;7.026;2022-12-10T09:27:32;77.63;;;31.13;;
52470;SDS011;38382;53.160;7.026;2022-12-10T09:29:58;68.93;;;28.08;;
52470;SDS011;38382;53.160;7.026;2022-12-10T09:32:24;72.40;;;29.83;;
52470;SDS011;38382;53.160;7.026;2022-12-10T09:34:53;79.75;;;30.00;;
52470;SDS011;38382;53.160;7.026;2022-12-10T09:37:18;76.03;;;30.02;;
52470;SDS011;38382;53.160;7.026;2022-12-10T09:39:45;73.20;;;29.88;;
52470;SDS011;38382;53.160;7.026;2022-12-10T09:44:58;74.95;;;30.42;;
52470;SDS011;38382;53.160;7.026;2022-12-10T09:47:30;67.93;;;28.77;;
52470;SDS011;38382;53.160;7.026;2022-12-10T09:50:16;73.45;;;30.10;;
52470;SDS011;38382;53.160;7.026;2022-12-10T09:52:44;76.25;;;30.60;;
52470;SDS011;38382;53.160;7.026;2022-12-10T09:55:14;72.03;;;31.20;;
52470;SDS011;38382;53.160;7.026;2022-12-10T09:57:59;80.07;;;31.40;;
52470;SDS011;38382;53.160;7.026;2022-12-10T10:03:03;75.70;;;30.65;;
52470;SDS011;38382;53.160;7.026;2022-12-10T10:05:34;72.22;;;30.98;;
52470;SDS011;38382;53.160;7.026;2022-12-10T10:08:06;69.88;;;29.75;;
52470;SDS011;38382;53.160;7.026;2022-12-10T10:10:40;74.80;;;29.92;;
52470;SDS011;38382;53.160;7.026;2022-12-10T10:15:34;72.78;;;31.25;;
52470;SDS011;38382;53.160;7.026;2022-12-10T10:18:02;67.43;;;30.27;;
52470;SDS011;38382;53.160;7.026;2022-12-10T10:20:48;69.32;;;29.63;;
52470;SDS011;38382;53.160;7.026;2022-12-10T10:23:15;68.38;;;30.13;;
52470;SDS011;38382;53.160;7.026;2022-12-10T10:25:41;73.00;;;30.90;;
52470;SDS011;38382;53.160;7.026;2022-12-10T10:28:12;68.40;;;28.60;;
52470;SDS011;38382;53.160;7.026;2022-12-10T10:30:42;72.18;;;30.08;;
52470;SDS011;38382;53.160;7.026;2022-12-10T10:33:10;69.38;;;29.80;;
52470;SDS011;38382;53.160;7.026;2022-12-10T10:35:45;69.78;;;30.38;;
52470;SDS011;38382;53.160;7.026;2022-12-10T10:38:16;68.70;;;29.40;;
52470;SDS011;38382;53.160;7.026;2022-12-10T10:40:52;66.22;;;28.98;;
52470;SDS011;38382;53.160;7.026;2022-12-10T10:43:47;68.50;;;29.25;;
52470;SDS011;38382;53.160;7.026;2022-12-10T10:46:17;68.38;;;29.88;;
52470;SDS011;38382;53.160;7.026;2022-12-10T10:48:46;69.55;;;30.33;;
52470;SDS011;38382;53.160;7.026;2022-12-10T10:53:42;69.50;;;28.77;;
52470;SDS011;38382;53.160;7.026;2022-12-10T11:04:14;69.90;;;29.50;;
52470;SDS011;38382;53.160;7.026;2022-12-10T11:06:41;67.20;;;29.60;;
52470;SDS011;38382;53.160;7.026;2022-12-10T11:09:08;68.60;;;30.08;;
52470;SDS011;38382;53.160;7.026;2022-12-10T11:11:51;65.80;;;29.77;;
52470;SDS011;38382;53.160;7.026;2022-12-10T11:14:24;71.00;;;31.30;;
52470;SDS011;38382;53.160;7.026;2022-12-10T11:17:39;71.17;;;30.10;;
52470;SDS011;38382;53.160;7.026;2022-12-10T11:19:44;69.07;;;30.05;;
52470;SDS011;38382;53.160;7.026;2022-12-10T11:24:55;70.57;;;31.27;;
52470;SDS011;38382;53.160;7.026;2022-12-10T11:30:09;68.75;;;29.55;;
52470;SDS011;38382;53.160;7.026;2022-12-10T11:32:48;70.22;;;30.73;;
52470;SDS011;38382;53.160;7.026;2022-12-10T11:35:40;67.45;;;29.45;;
52470;SDS011;38382;53.160;7.026;2022-12-10T11:38:21;69.43;;;30.15;;
52470;SDS011;38382;53.160;7.026;2022-12-10T11:41:20;72.05;;;31.20;;
52470;SDS011;38382;53.160;7.026;2022-12-10T12:06:16;75.85;;;31.45;;
52470;SDS011;38382;53.160;7.026;2022-12-10T12:13:59;75.43;;;32.55;;
52470;SDS011;38382;53.160;7.026;2022-12-10T12:16:34;69.20;;;30.13;;
52470;SDS011;38382;53.160;7.026;2022-12-10T12:19:13;70.05;;;31.20;;
52470;SDS011;38382;53.160;7.026;2022-12-10T12:21:42;73.80;;;32.67;;
52470;SDS011;38382;53.160;7.026;2022-12-10T12:24:12;72.78;;;29.58;;
52470;SDS011;38382;53.160;7.026;2022-12-10T12:27:08;74.78;;;33.05;;
52470;SDS011;38382;53.160;7.026;2022-12-10T12:30:10;75.57;;;32.72;;
52470;SDS011;38382;53.160;7.026;2022-12-10T12:32:45;73.22;;;32.08;;
52470;SDS011;38382;53.160;7.026;2022-12-10T12:37:50;73.60;;;32.60;;
52470;SDS011;38382;53.160;7.026;2022-12-10T12:48:25;78.00;;;33.63;;
52470;SDS011;38382;53.160;7.026;2022-12-10T12:53:28;74.63;;;32.75;;
52470;SDS011;38382;53.160;7.026;2022-12-10T13:03:55;74.97;;;33.20;;
52470;SDS011;38382;53.160;7.026;2022-12-10T13:11:34;82.32;;;33.17;;
52470;SDS011;38382;53.160;7.026;2022-12-10T13:24:21;74.38;;;31.65;;
52470;SDS011;38382;53.160;7.026;2022-12-10T13:32:24;74.93;;;31.35;;
52470;SDS011;38382;53.160;7.026;2022-12-10T13:37:34;70.78;;;31.27;;
52470;SDS011;38382;53.160;7.026;2022-12-10T13:42:36;83.10;;;32.30;;
52470;SDS011;38382;53.160;7.026;2022-12-10T13:47:52;76.20;;;29.58;;
52470;SDS011;38382;53.160;7.026;2022-12-10T13:53:21;75.65;;;32.05;;
52470;SDS011;38382;53.160;7.026;2022-12-10T13:56:28;73.78;;;29.15;;
52470;SDS011;38382;53.160;7.026;2022-12-10T13:59:15;70.93;;;29.88;;
52470;SDS011;38382;53.160;7.026;2022-12-10T14:07:14;65.55;;;28.48;;
52470;SDS011;38382;53.160;7.026;2022-12-10T14:09:45;68.13;;;26.55;;
52470;SDS011;38382;53.160;7.026;2022-12-10T14:12:16;62.85;;;26.42;;
52470;SDS011;38382;53.160;7.026;2022-12-10T14:15:07;64.28;;;26.77;;
52470;SDS011;38382;53.160;7.026;2022-12-10T14:17:37;60.25;;;24.50;;
52470;SDS011;38382;53.160;7.026;2022-12-10T14:20:08;55.50;;;23.40;;
52470;SDS011;38382;53.160;7.026;2022-12-10T14:22:45;51.78;;;23.05;;
52470;SDS011;38382;53.160;7.026;2022-12-10T14:25:13;61.60;;;25.77;;
52470;SDS011;38382;53.160;7.026;2022-12-10T14:27:43;61.17;;;26.85;;
52470;SDS011;38382;53.160;7.026;2022-12-10T14:32:48;61.80;;;24.42;;
52470;SDS011;38382;53.160;7.026;2022-12-10T14:35:16;68.30;;;25.40;;
52470;SDS011;38382;53.160;7.026;2022-12-10T14:37:46;60.15;;;24.80;;
52470;SDS011;38382;53.160;7.026;2022-12-10T14:40:23;65.85;;;26.00;;
52470;SDS011;38382;53.160;7.026;2022-12-10T14:42:52;65.93;;;25.13;;
52470;SDS011;38382;53.160;7.026;2022-12-10T14:45:27;68.70;;;27.25;;
52470;SDS011;38382;53.160;7.026;2022-12-10T14:48:03;77.28;;;27.92;;
52470;SDS011;38382;53.160;7.026;2022-12-10T14:50:32;68.53;;;26.77;;
52470;SDS011;38382;53.160;7.026;2022-12-10T14:53:00;69.50;;;27.70;;
52470;SDS011;38382;53.160;7.026;2022-12-10T14:55:25;72.60;;;29.92;;
52470;SDS011;38382;53.160;7.026;2022-12-10T14:57:56;73.22;;;27.60;;
52470;SDS011;38382;53.160;7.026;2022-12-10T15:00:26;72.65;;;27.77;;
52470;SDS011;38382;53.160;7.026;2022-12-10T15:05:20;72.30;;;27.25;;
52470;SDS011;38382;53.160;7.026;2022-12-10T15:07:52;82.10;;;27.95;;
52470;SDS011;38382;53.160;7.026;2022-12-10T15:10:19;72.45;;;27.67;;
52470;SDS011;38382;53.160;7.026;2022-12-10T15:12:55;71.72;;;27.40;;
52470;SDS011;38382;53.160;7.026;2022-12-10T15:18:19;75.70;;;27.17;;
52470;SDS011;38382;53.160;7.026;2022-12-10T15:20:50;78.90;;;28.48;;
52470;SDS011;38382;53.160;7.026;2022-12-10T15:23:23;81.95;;;28.70;;
52470;SDS011;38382;53.160;7.026;2022-12-10T15:28:23;84.90;;;27.83;;
52470;SDS011;38382;53.160;7.026;2022-12-10T15:31:36;73.00;;;26.98;;
52470;SDS011;38382;53.160;7.026;2022-12-10T15:34:05;76.20;;;27.58;;
52470;SDS011;38382;53.160;7.026;2022-12-10T15:39:17;74.78;;;27.75;;
52470;SDS011;38382;53.160;7.026;2022-12-10T15:49:45;77.95;;;27.83;;
52470;SDS011;38382;53.160;7.026;2022-12-10T15:52:12;76.10;;;27.35;;
52470;SDS011;38382;53.160;7.026;2022-12-10T15:54:43;69.22;;;25.90;;
52470;SDS011;38382;53.160;7.026;2022-12-10T15:57:21;70.22;;;25.30;;
52470;SDS011;38382;53.160;7.026;2022-12-10T16:06:40;74.88;;;26.25;;
52470;SDS011;38382;53.160;7.026;2022-12-10T16:09:06;68.55;;;25.45;;
52470;SDS011;38382;53.160;7.026;2022-12-10T16:11:33;73.97;;;27.65;;
52470;SDS011;38382;53.160;7.026;2022-12-10T16:13:59;76.95;;;27.67;;
52470;SDS011;38382;53.160;7.026;2022-12-10T16:16:25;69.93;;;27.08;;
52470;SDS011;38382;53.160;7.026;2022-12-10T16:18:51;75.97;;;27.58;;
52470;SDS011;38382;53.160;7.026;2022-12-10T16:21:20;75.50;;;27.65;;
52470;SDS011;38382;53.160;7.026;2022-12-10T16:23:48;73.70;;;27.00;;
52470;SDS011;38382;53.160;7.026;2022-12-10T16:26:15;72.18;;;25.23;;
52470;SDS011;38382;53.160;7.026;2022-12-10T16:28:47;71.57;;;26.70;;
52470;SDS011;38382;53.160;7.026;2022-12-10T16:31:20;75.65;;;28.52;;
52470;SDS011;38382;53.160;7.026;2022-12-10T16:33:46;68.97;;;26.15;;
52470;SDS011;38382;53.160;7.026;2022-12-10T16:36:32;82.93;;;28.10;;
52470;SDS011;38382;53.160;7.026;2022-12-10T16:38:58;67.40;;;27.10;;
52470;SDS011;38382;53.160;7.026;2022-12-10T16:41:53;79.72;;;26.23;;
52470;SDS011;38382;53.160;7.026;2022-12-10T16:44:20;76.18;;;28.10;;
52470;SDS011;38382;53.160;7.026;2022-12-10T16:46:46;74.80;;;27.63;;
52470;SDS011;38382;53.160;7.026;2022-12-10T16:49:12;82.65;;;28.85;;
52470;SDS011;38382;53.160;7.026;2022-12-10T16:51:37;87.43;;;31.05;;
52470;SDS011;38382;53.160;7.026;2022-12-10T16:54:04;77.50;;;27.48;;
52470;SDS011;38382;53.160;7.026;2022-12-10T16:56:30;88.47;;;31.98;;
52470;SDS011;38382;53.160;7.026;2022-12-10T16:58:59;78.13;;;29.00;;
52470;SDS011;38382;53.160;7.026;2022-12-10T17:01:25;82.53;;;29.33;;
52470;SDS011;38382;53.160;7.026;2022-12-10T17:04:08;78.82;;;28.70;;
52470;SDS011;38382;53.160;7.026;2022-12-10T17:06:43;86.85;;;29.02;;
52470;SDS011;38382;53.160;7.026;2022-12-10T17:09:08;81.50;;;29.50;;
52470;SDS011;38382;53.160;7.026;2022-12-10T17:11:40;77.97;;;27.48;;
52470;SDS011;38382;53.160;7.026;2022-12-10T17:16:41;93.07;;;27.90;;
52470;SDS011;38382;53.160;7.026;2022-12-10T17:19:11;84.22;;;28.50;;
52470;SDS011;38382;53.160;7.026;2022-12-10T17:21:37;86.10;;;30.02;;